sensor_id;sensor_type;location;lat;lon;timestamp;temperature;humidity
14877;DHT22;69691;48.172;17.070;2023-08-01T00:02:10;21.50;90.20
14877;DHT22;69691;48.172;17.070;2023-08-01T00:04:37;21.50;90.10
14877;DHT22;69691;48.172;17.070;2023-08-01T00:07:03;21.50;90.10
14877;DHT22;69691;48.172;17.070;2023-08-01T00:09:29;21.50;90.00
14877;DHT22;69691;48.172;17.070;2023-08-01T00:11:55;21.50;90.20
14877;DHT22;69691;48.172;17.070;2023-08-01T00:14:21;21.50;90.30
14877;DHT22;69691;48.172;17.070;2023-08-01T00:16:50;21.50;90.30
14877;DHT22;69691;48.172;17.070;2023-08-01T00:19:16;21.50;90.30
14877;DHT22;69691;48.172;17.070;2023-08-01T00:21:43;21.50;90.30
14877;DHT22;69691;48.172;17.070;2023-08-01T00:24:08;21.50;90.40
14877;DHT22;69691;48.172;17.070;2023-08-01T00:26:34;21.50;90.50
14877;DHT22;69691;48.172;17.070;2023-08-01T00:29:01;21.40;90.50
14877;DHT22;69691;48.172;17.070;2023-08-01T00:31:27;21.40;90.60
14877;DHT22;69691;48.172;17.070;2023-08-01T00:33:53;21.40;90.70
14877;DHT22;69691;48.172;17.070;2023-08-01T00:36:19;21.40;90.70
14877;DHT22;69691;48.172;17.070;2023-08-01T00:38:44;21.40;90.80
14877;DHT22;69691;48.172;17.070;2023-08-01T00:41:10;21.50;90.80
14877;DHT22;69691;48.172;17.070;2023-08-01T00:43:36;21.50;90.90
14877;DHT22;69691;48.172;17.070;2023-08-01T00:46:04;21.50;90.90
14877;DHT22;69691;48.172;17.070;2023-08-01T00:48:31;21.40;90.80
14877;DHT22;69691;48.172;17.070;2023-08-01T00:51:03;21.40;90.90
14877;DHT22;69691;48.172;17.070;2023-08-01T00:53:31;21.40;90.90
14877;DHT22;69691;48.172;17.070;2023-08-01T00:55:57;21.30;91.00
14877;DHT22;69691;48.172;17.070;2023-08-01T00:58:24;21.30;91.10
14877;DHT22;69691;48.172;17.070;2023-08-01T01:00:50;21.30;91.10
14877;DHT22;69691;48.172;17.070;2023-08-01T01:03:16;21.30;91.20
14877;DHT22;69691;48.172;17.070;2023-08-01T01:06:01;21.30;91.30
14877;DHT22;69691;48.172;17.070;2023-08-01T01:08:33;21.30;91.40
14877;DHT22;69691;48.172;17.070;2023-08-01T01:10:59;21.20;91.40
14877;DHT22;69691;48.172;17.070;2023-08-01T01:13:25;21.20;91.50
14877;DHT22;69691;48.172;17.070;2023-08-01T01:15:51;21.10;91.70
14877;DHT22;69691;48.172;17.070;2023-08-01T01:18:17;21.10;91.70
14877;DHT22;69691;48.172;17.070;2023-08-01T01:20:42;21.10;91.70
14877;DHT22;69691;48.172;17.070;2023-08-01T01:23:09;21.10;91.70
14877;DHT22;69691;48.172;17.070;2023-08-01T01:25:36;21.10;91.70
14877;DHT22;69691;48.172;17.070;2023-08-01T01:28:04;21.10;91.70
14877;DHT22;69691;48.172;17.070;2023-08-01T01:30:32;21.10;91.70
14877;DHT22;69691;48.172;17.070;2023-08-01T01:33:02;21.10;91.70
14877;DHT22;69691;48.172;17.070;2023-08-01T01:35:29;21.10;91.80
14877;DHT22;69691;48.172;17.070;2023-08-01T01:37:55;21.10;91.80
14877;DHT22;69691;48.172;17.070;2023-08-01T01:40:24;21.00;91.70
14877;DHT22;69691;48.172;17.070;2023-08-01T01:42:50;21.00;91.70
14877;DHT22;69691;48.172;17.070;2023-08-01T01:45:15;20.90;92.00
14877;DHT22;69691;48.172;17.070;2023-08-01T01:47:41;20.90;91.90
14877;DHT22;69691;48.172;17.070;2023-08-01T01:50:07;20.80;91.90
14877;DHT22;69691;48.172;17.070;2023-08-01T01:52:33;20.80;91.90
14877;DHT22;69691;48.172;17.070;2023-08-01T01:55:00;20.80;92.00
14877;DHT22;69691;48.172;17.070;2023-08-01T01:57:26;20.70;92.00
14877;DHT22;69691;48.172;17.070;2023-08-01T01:59:52;20.70;92.20
14877;DHT22;69691;48.172;17.070;2023-08-01T02:02:18;20.70;92.10
14877;DHT22;69691;48.172;17.070;2023-08-01T02:04:46;20.60;92.00
14877;DHT22;69691;48.172;17.070;2023-08-01T02:07:13;20.60;92.10
14877;DHT22;69691;48.172;17.070;2023-08-01T02:09:40;20.60;92.20
14877;DHT22;69691;48.172;17.070;2023-08-01T02:12:08;20.60;92.40
14877;DHT22;69691;48.172;17.070;2023-08-01T02:14:36;20.50;92.40
14877;DHT22;69691;48.172;17.070;2023-08-01T02:17:02;20.50;92.60
14877;DHT22;69691;48.172;17.070;2023-08-01T02:19:29;20.50;92.70
14877;DHT22;69691;48.172;17.070;2023-08-01T02:21:55;20.50;92.80
14877;DHT22;69691;48.172;17.070;2023-08-01T02:24:21;20.50;92.90
14877;DHT22;69691;48.172;17.070;2023-08-01T02:26:48;20.60;93.00
14877;DHT22;69691;48.172;17.070;2023-08-01T02:29:14;20.60;93.10
14877;DHT22;69691;48.172;17.070;2023-08-01T02:31:40;20.60;92.90
14877;DHT22;69691;48.172;17.070;2023-08-01T02:34:06;20.70;92.90
14877;DHT22;69691;48.172;17.070;2023-08-01T02:36:32;20.70;92.90
14877;DHT22;69691;48.172;17.070;2023-08-01T02:38:58;20.80;92.90
14877;DHT22;69691;48.172;17.070;2023-08-01T02:41:24;20.80;92.90
14877;DHT22;69691;48.172;17.070;2023-08-01T02:43:49;20.80;92.80
14877;DHT22;69691;48.172;17.070;2023-08-01T02:46:15;20.80;92.70
14877;DHT22;69691;48.172;17.070;2023-08-01T02:48:41;20.80;92.50
14877;DHT22;69691;48.172;17.070;2023-08-01T02:51:07;20.80;92.40
14877;DHT22;69691;48.172;17.070;2023-08-01T02:53:37;20.80;92.30
14877;DHT22;69691;48.172;17.070;2023-08-01T02:56:07;20.80;92.30
14877;DHT22;69691;48.172;17.070;2023-08-01T02:58:35;20.80;92.30
14877;DHT22;69691;48.172;17.070;2023-08-01T03:01:05;20.70;92.40
14877;DHT22;69691;48.172;17.070;2023-08-01T03:03:32;20.70;92.50
14877;DHT22;69691;48.172;17.070;2023-08-01T03:06:01;20.80;92.60
14877;DHT22;69691;48.172;17.070;2023-08-01T03:08:27;20.80;92.60
14877;DHT22;69691;48.172;17.070;2023-08-01T03:10:54;20.80;92.60
14877;DHT22;69691;48.172;17.070;2023-08-01T03:13:21;20.90;92.50
14877;DHT22;69691;48.172;17.070;2023-08-01T03:15:47;20.90;92.40
14877;DHT22;69691;48.172;17.070;2023-08-01T03:18:12;20.90;92.40
14877;DHT22;69691;48.172;17.070;2023-08-01T03:20:38;21.00;92.40
14877;DHT22;69691;48.172;17.070;2023-08-01T03:23:05;21.00;92.30
14877;DHT22;69691;48.172;17.070;2023-08-01T03:25:31;21.10;92.30
14877;DHT22;69691;48.172;17.070;2023-08-01T03:27:57;21.10;92.20
14877;DHT22;69691;48.172;17.070;2023-08-01T03:30:23;21.20;92.10
14877;DHT22;69691;48.172;17.070;2023-08-01T03:32:49;21.20;91.70
14877;DHT22;69691;48.172;17.070;2023-08-01T03:35:15;21.20;91.50
14877;DHT22;69691;48.172;17.070;2023-08-01T03:37:41;21.20;91.30
14877;DHT22;69691;48.172;17.070;2023-08-01T03:40:07;21.30;91.00
14877;DHT22;69691;48.172;17.070;2023-08-01T03:42:39;21.30;90.80
14877;DHT22;69691;48.172;17.070;2023-08-01T03:45:06;21.30;90.50
14877;DHT22;69691;48.172;17.070;2023-08-01T03:47:33;21.30;90.30
14877;DHT22;69691;48.172;17.070;2023-08-01T03:49:59;21.30;90.00
14877;DHT22;69691;48.172;17.070;2023-08-01T03:52:26;21.30;90.20
14877;DHT22;69691;48.172;17.070;2023-08-01T03:54:55;21.30;90.00
14877;DHT22;69691;48.172;17.070;2023-08-01T03:57:21;21.30;90.10
14877;DHT22;69691;48.172;17.070;2023-08-01T03:59:47;21.30;90.10
14877;DHT22;69691;48.172;17.070;2023-08-01T04:02:13;21.40;90.10
14877;DHT22;69691;48.172;17.070;2023-08-01T04:04:39;21.50;90.00
14877;DHT22;69691;48.172;17.070;2023-08-01T04:07:05;21.50;89.30
14877;DHT22;69691;48.172;17.070;2023-08-01T04:09:31;21.50;89.10
14877;DHT22;69691;48.172;17.070;2023-08-01T04:11:56;21.60;89.30
14877;DHT22;69691;48.172;17.070;2023-08-01T04:14:22;21.60;89.20
14877;DHT22;69691;48.172;17.070;2023-08-01T04:16:48;21.70;89.20
14877;DHT22;69691;48.172;17.070;2023-08-01T04:19:14;21.80;89.30
14877;DHT22;69691;48.172;17.070;2023-08-01T04:21:40;21.90;89.10
14877;DHT22;69691;48.172;17.070;2023-08-01T04:24:05;22.00;89.20
14877;DHT22;69691;48.172;17.070;2023-08-01T04:26:31;22.00;88.70
14877;DHT22;69691;48.172;17.070;2023-08-01T04:28:57;22.00;87.40
14877;DHT22;69691;48.172;17.070;2023-08-01T04:31:23;21.90;86.80
14877;DHT22;69691;48.172;17.070;2023-08-01T04:33:49;21.80;86.70
14877;DHT22;69691;48.172;17.070;2023-08-01T04:36:14;21.80;87.00
14877;DHT22;69691;48.172;17.070;2023-08-01T04:38:40;21.80;86.90
14877;DHT22;69691;48.172;17.070;2023-08-01T04:41:06;21.80;86.40
14877;DHT22;69691;48.172;17.070;2023-08-01T04:43:33;21.80;86.40
14877;DHT22;69691;48.172;17.070;2023-08-01T04:45:59;21.70;87.60
14877;DHT22;69691;48.172;17.070;2023-08-01T04:48:25;21.70;87.30
14877;DHT22;69691;48.172;17.070;2023-08-01T04:50:50;21.80;87.60
14877;DHT22;69691;48.172;17.070;2023-08-01T04:53:16;21.90;87.80
14877;DHT22;69691;48.172;17.070;2023-08-01T04:55:42;21.90;87.20
14877;DHT22;69691;48.172;17.070;2023-08-01T04:58:08;22.00;86.60
14877;DHT22;69691;48.172;17.070;2023-08-01T05:00:34;22.10;86.20
14877;DHT22;69691;48.172;17.070;2023-08-01T05:03:00;22.10;85.20
14877;DHT22;69691;48.172;17.070;2023-08-01T05:05:26;22.00;85.00
14877;DHT22;69691;48.172;17.070;2023-08-01T05:07:52;22.00;85.50
14877;DHT22;69691;48.172;17.070;2023-08-01T05:10:17;22.00;86.40
14877;DHT22;69691;48.172;17.070;2023-08-01T05:12:43;22.10;87.10
14877;DHT22;69691;48.172;17.070;2023-08-01T05:15:09;22.20;88.30
14877;DHT22;69691;48.172;17.070;2023-08-01T05:17:35;22.20;87.80
14877;DHT22;69691;48.172;17.070;2023-08-01T05:20:01;22.20;88.20
14877;DHT22;69691;48.172;17.070;2023-08-01T05:22:29;22.30;88.60
14877;DHT22;69691;48.172;17.070;2023-08-01T05:24:55;22.40;88.90
14877;DHT22;69691;48.172;17.070;2023-08-01T05:27:21;22.40;87.90
14877;DHT22;69691;48.172;17.070;2023-08-01T05:29:47;22.50;87.60
14877;DHT22;69691;48.172;17.070;2023-08-01T05:32:15;22.40;87.10
14877;DHT22;69691;48.172;17.070;2023-08-01T05:34:42;22.30;86.50
14877;DHT22;69691;48.172;17.070;2023-08-01T05:37:08;22.30;87.30
14877;DHT22;69691;48.172;17.070;2023-08-01T05:39:34;22.40;87.70
14877;DHT22;69691;48.172;17.070;2023-08-01T05:41:59;22.40;85.90
14877;DHT22;69691;48.172;17.070;2023-08-01T05:44:25;22.40;85.80
14877;DHT22;69691;48.172;17.070;2023-08-01T05:46:51;22.40;85.10
14877;DHT22;69691;48.172;17.070;2023-08-01T05:49:17;22.40;84.40
14877;DHT22;69691;48.172;17.070;2023-08-01T05:51:42;22.40;84.50
14877;DHT22;69691;48.172;17.070;2023-08-01T05:54:08;22.40;84.00
14877;DHT22;69691;48.172;17.070;2023-08-01T05:56:34;22.40;84.10
14877;DHT22;69691;48.172;17.070;2023-08-01T05:59:00;22.50;84.20
14877;DHT22;69691;48.172;17.070;2023-08-01T06:01:26;22.70;83.90
14877;DHT22;69691;48.172;17.070;2023-08-01T06:03:52;22.90;83.10
14877;DHT22;69691;48.172;17.070;2023-08-01T06:06:18;23.00;82.20
14877;DHT22;69691;48.172;17.070;2023-08-01T06:08:44;23.00;81.50
14877;DHT22;69691;48.172;17.070;2023-08-01T06:11:10;23.10;81.90
14877;DHT22;69691;48.172;17.070;2023-08-01T06:13:35;23.20;82.00
14877;DHT22;69691;48.172;17.070;2023-08-01T06:16:01;23.20;81.70
14877;DHT22;69691;48.172;17.070;2023-08-01T06:18:27;23.30;81.70
14877;DHT22;69691;48.172;17.070;2023-08-01T06:20:53;23.40;81.60
14877;DHT22;69691;48.172;17.070;2023-08-01T06:23:19;23.50;81.20
14877;DHT22;69691;48.172;17.070;2023-08-01T06:25:45;23.70;80.90
14877;DHT22;69691;48.172;17.070;2023-08-01T06:28:11;23.90;80.10
14877;DHT22;69691;48.172;17.070;2023-08-01T06:30:37;24.00;78.70
14877;DHT22;69691;48.172;17.070;2023-08-01T06:33:02;24.20;79.50
14877;DHT22;69691;48.172;17.070;2023-08-01T06:35:29;24.30;78.10
14877;DHT22;69691;48.172;17.070;2023-08-01T06:37:55;24.50;77.60
14877;DHT22;69691;48.172;17.070;2023-08-01T06:40:21;24.60;76.70
14877;DHT22;69691;48.172;17.070;2023-08-01T06:42:47;24.60;75.10
14877;DHT22;69691;48.172;17.070;2023-08-01T06:45:13;24.60;74.90
14877;DHT22;69691;48.172;17.070;2023-08-01T06:47:39;24.70;75.30
14877;DHT22;69691;48.172;17.070;2023-08-01T06:50:05;24.90;75.40
14877;DHT22;69691;48.172;17.070;2023-08-01T06:52:31;25.00;74.90
14877;DHT22;69691;48.172;17.070;2023-08-01T06:54:57;25.20;74.20
14877;DHT22;69691;48.172;17.070;2023-08-01T06:57:23;25.20;72.80
14877;DHT22;69691;48.172;17.070;2023-08-01T06:59:49;25.30;72.90
14877;DHT22;69691;48.172;17.070;2023-08-01T07:02:14;25.50;72.00
14877;DHT22;69691;48.172;17.070;2023-08-01T07:04:41;25.50;71.40
14877;DHT22;69691;48.172;17.070;2023-08-01T07:07:06;25.50;71.50
14877;DHT22;69691;48.172;17.070;2023-08-01T07:09:34;25.70;70.60
14877;DHT22;69691;48.172;17.070;2023-08-01T07:12:00;25.70;69.70
14877;DHT22;69691;48.172;17.070;2023-08-01T07:14:26;25.60;69.70
14877;DHT22;69691;48.172;17.070;2023-08-01T07:16:51;25.60;69.80
14877;DHT22;69691;48.172;17.070;2023-08-01T07:19:17;25.50;69.90
14877;DHT22;69691;48.172;17.070;2023-08-01T07:21:43;25.40;70.60
14877;DHT22;69691;48.172;17.070;2023-08-01T07:24:10;25.30;71.00
14877;DHT22;69691;48.172;17.070;2023-08-01T07:26:36;25.20;71.10
14877;DHT22;69691;48.172;17.070;2023-08-01T07:29:02;25.10;71.20
14877;DHT22;69691;48.172;17.070;2023-08-01T07:31:33;24.90;72.60
14877;DHT22;69691;48.172;17.070;2023-08-01T07:33:59;24.70;73.30
14877;DHT22;69691;48.172;17.070;2023-08-01T07:36:25;24.60;73.90
14877;DHT22;69691;48.172;17.070;2023-08-01T07:38:50;24.50;74.80
14877;DHT22;69691;48.172;17.070;2023-08-01T07:41:16;24.40;75.90
14877;DHT22;69691;48.172;17.070;2023-08-01T07:43:42;24.40;75.80
14877;DHT22;69691;48.172;17.070;2023-08-01T07:46:08;24.30;75.90
14877;DHT22;69691;48.172;17.070;2023-08-01T07:48:35;24.20;77.10
14877;DHT22;69691;48.172;17.070;2023-08-01T07:51:01;24.20;77.90
14877;DHT22;69691;48.172;17.070;2023-08-01T07:53:27;24.30;77.60
14877;DHT22;69691;48.172;17.070;2023-08-01T07:55:52;24.40;76.80
14877;DHT22;69691;48.172;17.070;2023-08-01T07:58:19;24.40;76.50
14877;DHT22;69691;48.172;17.070;2023-08-01T08:00:44;24.30;76.60
14877;DHT22;69691;48.172;17.070;2023-08-01T08:03:10;24.10;77.70
14877;DHT22;69691;48.172;17.070;2023-08-01T08:05:36;24.00;78.90
14877;DHT22;69691;48.172;17.070;2023-08-01T08:08:06;24.00;79.40
14877;DHT22;69691;48.172;17.070;2023-08-01T08:10:32;23.90;79.30
14877;DHT22;69691;48.172;17.070;2023-08-01T08:12:58;24.00;79.60
14877;DHT22;69691;48.172;17.070;2023-08-01T08:15:23;24.00;79.70
14877;DHT22;69691;48.172;17.070;2023-08-01T08:17:50;24.00;78.50
14877;DHT22;69691;48.172;17.070;2023-08-01T08:20:16;24.00;78.90
14877;DHT22;69691;48.172;17.070;2023-08-01T08:22:42;24.00;78.80
14877;DHT22;69691;48.172;17.070;2023-08-01T08:25:07;24.00;79.20
14877;DHT22;69691;48.172;17.070;2023-08-01T08:27:34;24.00;79.50
14877;DHT22;69691;48.172;17.070;2023-08-01T08:29:59;23.90;79.70
14877;DHT22;69691;48.172;17.070;2023-08-01T08:32:25;23.90;81.10
14877;DHT22;69691;48.172;17.070;2023-08-01T08:34:51;23.90;80.90
14877;DHT22;69691;48.172;17.070;2023-08-01T08:37:17;23.80;81.00
14877;DHT22;69691;48.172;17.070;2023-08-01T08:39:43;23.70;81.70
14877;DHT22;69691;48.172;17.070;2023-08-01T08:42:10;23.60;82.20
14877;DHT22;69691;48.172;17.070;2023-08-01T08:44:42;23.60;82.40
14877;DHT22;69691;48.172;17.070;2023-08-01T08:47:10;23.60;83.00
14877;DHT22;69691;48.172;17.070;2023-08-01T08:49:38;23.50;83.20
14877;DHT22;69691;48.172;17.070;2023-08-01T08:52:04;23.40;83.80
14877;DHT22;69691;48.172;17.070;2023-08-01T08:54:31;23.50;84.10
14877;DHT22;69691;48.172;17.070;2023-08-01T08:56:58;23.40;84.40
14877;DHT22;69691;48.172;17.070;2023-08-01T08:59:25;23.50;84.50
14877;DHT22;69691;48.172;17.070;2023-08-01T09:01:52;23.50;84.40
14877;DHT22;69691;48.172;17.070;2023-08-01T09:04:18;23.60;83.90
14877;DHT22;69691;48.172;17.070;2023-08-01T09:06:49;23.70;83.90
14877;DHT22;69691;48.172;17.070;2023-08-01T09:09:16;23.70;84.00
14877;DHT22;69691;48.172;17.070;2023-08-01T09:11:47;23.70;85.70
14877;DHT22;69691;48.172;17.070;2023-08-01T09:14:17;23.80;85.60
14877;DHT22;69691;48.172;17.070;2023-08-01T09:16:44;23.80;84.80
14877;DHT22;69691;48.172;17.070;2023-08-01T09:19:11;23.70;85.90
14877;DHT22;69691;48.172;17.070;2023-08-01T09:21:39;23.70;85.90
14877;DHT22;69691;48.172;17.070;2023-08-01T09:24:12;23.70;85.80
14877;DHT22;69691;48.172;17.070;2023-08-01T09:26:44;23.70;85.70
14877;DHT22;69691;48.172;17.070;2023-08-01T09:29:11;23.80;85.60
14877;DHT22;69691;48.172;17.070;2023-08-01T09:31:39;23.80;85.40
14877;DHT22;69691;48.172;17.070;2023-08-01T09:34:17;23.90;85.40
14877;DHT22;69691;48.172;17.070;2023-08-01T09:36:44;24.00;85.30
14877;DHT22;69691;48.172;17.070;2023-08-01T09:39:19;24.00;84.70
14877;DHT22;69691;48.172;17.070;2023-08-01T09:41:54;24.00;85.00
14877;DHT22;69691;48.172;17.070;2023-08-01T09:44:20;24.00;85.40
14877;DHT22;69691;48.172;17.070;2023-08-01T09:49:27;24.10;85.30
14877;DHT22;69691;48.172;17.070;2023-08-01T09:51:54;24.10;85.00
14877;DHT22;69691;48.172;17.070;2023-08-01T09:54:21;24.10;85.90
14877;DHT22;69691;48.172;17.070;2023-08-01T09:56:49;24.20;85.50
14877;DHT22;69691;48.172;17.070;2023-08-01T09:59:25;24.20;85.00
14877;DHT22;69691;48.172;17.070;2023-08-01T10:01:53;24.30;85.20
14877;DHT22;69691;48.172;17.070;2023-08-01T10:04:23;24.30;85.00
14877;DHT22;69691;48.172;17.070;2023-08-01T10:06:54;24.30;85.70
14877;DHT22;69691;48.172;17.070;2023-08-01T10:09:24;24.20;85.20
14877;DHT22;69691;48.172;17.070;2023-08-01T10:11:51;24.20;85.40
14877;DHT22;69691;48.172;17.070;2023-08-01T10:14:19;24.10;85.10
14877;DHT22;69691;48.172;17.070;2023-08-01T10:16:46;24.10;84.60
14877;DHT22;69691;48.172;17.070;2023-08-01T10:19:13;24.00;85.00
14877;DHT22;69691;48.172;17.070;2023-08-01T10:21:41;23.90;85.10
14877;DHT22;69691;48.172;17.070;2023-08-01T10:24:08;23.90;85.20
14877;DHT22;69691;48.172;17.070;2023-08-01T10:26:34;24.00;84.40
14877;DHT22;69691;48.172;17.070;2023-08-01T10:29:00;24.20;83.70
14877;DHT22;69691;48.172;17.070;2023-08-01T10:31:28;24.40;82.90
14877;DHT22;69691;48.172;17.070;2023-08-01T10:34:12;24.50;81.40
14877;DHT22;69691;48.172;17.070;2023-08-01T10:36:39;24.70;80.40
14877;DHT22;69691;48.172;17.070;2023-08-01T10:39:05;24.80;80.00
14877;DHT22;69691;48.172;17.070;2023-08-01T10:41:33;24.90;78.60
14877;DHT22;69691;48.172;17.070;2023-08-01T10:44:14;25.00;77.70
14877;DHT22;69691;48.172;17.070;2023-08-01T10:49:18;24.90;77.30
14877;DHT22;69691;48.172;17.070;2023-08-01T10:51:45;24.90;77.70
14877;DHT22;69691;48.172;17.070;2023-08-01T10:54:22;25.00;78.30
14877;DHT22;69691;48.172;17.070;2023-08-01T10:56:50;24.90;78.70
14877;DHT22;69691;48.172;17.070;2023-08-01T10:59:21;24.80;80.00
14877;DHT22;69691;48.172;17.070;2023-08-01T11:01:52;24.70;80.80
14877;DHT22;69691;48.172;17.070;2023-08-01T11:04:20;24.70;84.00
14877;DHT22;69691;48.172;17.070;2023-08-01T11:06:54;24.80;84.50
14877;DHT22;69691;48.172;17.070;2023-08-01T11:09:27;24.90;85.80
14877;DHT22;69691;48.172;17.070;2023-08-01T11:11:58;24.90;86.10
14877;DHT22;69691;48.172;17.070;2023-08-01T11:14:27;24.80;86.70
14877;DHT22;69691;48.172;17.070;2023-08-01T11:16:55;24.80;86.70
14877;DHT22;69691;48.172;17.070;2023-08-01T11:19:26;24.80;87.40
14877;DHT22;69691;48.172;17.070;2023-08-01T11:21:54;24.90;87.50
14877;DHT22;69691;48.172;17.070;2023-08-01T11:24:23;24.90;88.80
14877;DHT22;69691;48.172;17.070;2023-08-01T11:26:51;24.70;90.00
14877;DHT22;69691;48.172;17.070;2023-08-01T11:29:20;24.60;90.70
14877;DHT22;69691;48.172;17.070;2023-08-01T11:31:57;24.60;90.50
14877;DHT22;69691;48.172;17.070;2023-08-01T11:34:24;24.70;90.80
14877;DHT22;69691;48.172;17.070;2023-08-01T11:36:50;24.50;90.70
14877;DHT22;69691;48.172;17.070;2023-08-01T11:39:16;24.50;91.10
14877;DHT22;69691;48.172;17.070;2023-08-01T11:41:43;24.40;91.20
14877;DHT22;69691;48.172;17.070;2023-08-01T11:44:09;24.30;91.70
14877;DHT22;69691;48.172;17.070;2023-08-01T11:46:37;24.30;92.00
14877;DHT22;69691;48.172;17.070;2023-08-01T11:49:07;24.30;92.20
14877;DHT22;69691;48.172;17.070;2023-08-01T11:51:43;24.10;92.60
14877;DHT22;69691;48.172;17.070;2023-08-01T11:54:10;24.00;93.00
14877;DHT22;69691;48.172;17.070;2023-08-01T11:56:39;24.00;93.10
14877;DHT22;69691;48.172;17.070;2023-08-01T11:59:11;24.00;92.70
14877;DHT22;69691;48.172;17.070;2023-08-01T12:01:39;23.90;92.10
14877;DHT22;69691;48.172;17.070;2023-08-01T12:04:06;23.70;92.30
14877;DHT22;69691;48.172;17.070;2023-08-01T12:06:32;23.60;92.60
14877;DHT22;69691;48.172;17.070;2023-08-01T12:09:10;23.50;92.60
14877;DHT22;69691;48.172;17.070;2023-08-01T12:11:37;23.50;92.40
14877;DHT22;69691;48.172;17.070;2023-08-01T12:14:07;23.40;92.40
14877;DHT22;69691;48.172;17.070;2023-08-01T12:16:39;23.30;92.60
14877;DHT22;69691;48.172;17.070;2023-08-01T12:19:08;23.20;92.80
14877;DHT22;69691;48.172;17.070;2023-08-01T12:21:34;23.00;93.60
14877;DHT22;69691;48.172;17.070;2023-08-01T12:24:01;23.00;94.80
14877;DHT22;69691;48.172;17.070;2023-08-01T12:26:27;23.00;94.60
14877;DHT22;69691;48.172;17.070;2023-08-01T12:28:54;23.10;94.50
14877;DHT22;69691;48.172;17.070;2023-08-01T12:31:21;23.20;94.20
14877;DHT22;69691;48.172;17.070;2023-08-01T12:33:47;23.10;93.60
14877;DHT22;69691;48.172;17.070;2023-08-01T12:36:14;23.10;93.60
14877;DHT22;69691;48.172;17.070;2023-08-01T12:38:41;23.00;93.50
14877;DHT22;69691;48.172;17.070;2023-08-01T12:41:07;23.00;94.10
14877;DHT22;69691;48.172;17.070;2023-08-01T12:43:33;23.10;94.40
14877;DHT22;69691;48.172;17.070;2023-08-01T12:45:59;23.10;94.50
14877;DHT22;69691;48.172;17.070;2023-08-01T12:48:26;23.00;94.60
14877;DHT22;69691;48.172;17.070;2023-08-01T12:50:52;23.00;94.40
14877;DHT22;69691;48.172;17.070;2023-08-01T12:53:18;22.90;94.50
14877;DHT22;69691;48.172;17.070;2023-08-01T12:55:47;22.90;94.90
14877;DHT22;69691;48.172;17.070;2023-08-01T12:58:14;22.90;95.40
14877;DHT22;69691;48.172;17.070;2023-08-01T13:00:40;22.90;95.10
14877;DHT22;69691;48.172;17.070;2023-08-01T13:03:07;22.80;95.00
14877;DHT22;69691;48.172;17.070;2023-08-01T13:05:37;22.90;95.70
14877;DHT22;69691;48.172;17.070;2023-08-01T13:08:04;23.00;95.70
14877;DHT22;69691;48.172;17.070;2023-08-01T13:10:34;23.00;95.60
14877;DHT22;69691;48.172;17.070;2023-08-01T13:13:01;23.10;95.30
14877;DHT22;69691;48.172;17.070;2023-08-01T13:15:28;23.10;95.20
14877;DHT22;69691;48.172;17.070;2023-08-01T13:17:54;23.10;94.80
14877;DHT22;69691;48.172;17.070;2023-08-01T13:20:20;23.10;94.60
14877;DHT22;69691;48.172;17.070;2023-08-01T13:22:48;23.00;94.70
14877;DHT22;69691;48.172;17.070;2023-08-01T13:25:15;23.00;94.60
14877;DHT22;69691;48.172;17.070;2023-08-01T13:27:42;23.10;94.60
14877;DHT22;69691;48.172;17.070;2023-08-01T13:30:09;23.00;94.50
14877;DHT22;69691;48.172;17.070;2023-08-01T13:32:35;23.00;95.00
14877;DHT22;69691;48.172;17.070;2023-08-01T13:35:02;23.00;94.60
14877;DHT22;69691;48.172;17.070;2023-08-01T13:37:28;23.00;94.30
14877;DHT22;69691;48.172;17.070;2023-08-01T13:39:56;23.00;94.20
14877;DHT22;69691;48.172;17.070;2023-08-01T13:42:23;22.90;94.40
14877;DHT22;69691;48.172;17.070;2023-08-01T13:44:48;22.90;94.20
14877;DHT22;69691;48.172;17.070;2023-08-01T13:47:14;22.90;94.40
14877;DHT22;69691;48.172;17.070;2023-08-01T13:49:40;22.80;94.30
14877;DHT22;69691;48.172;17.070;2023-08-01T13:52:06;22.70;93.50
14877;DHT22;69691;48.172;17.070;2023-08-01T13:54:32;22.50;94.00
14877;DHT22;69691;48.172;17.070;2023-08-01T13:56:59;22.50;94.40
14877;DHT22;69691;48.172;17.070;2023-08-01T13:59:25;22.50;95.00
14877;DHT22;69691;48.172;17.070;2023-08-01T14:01:52;22.60;95.00
14877;DHT22;69691;48.172;17.070;2023-08-01T14:04:18;22.60;95.00
14877;DHT22;69691;48.172;17.070;2023-08-01T14:06:44;22.60;95.20
14877;DHT22;69691;48.172;17.070;2023-08-01T14:09:10;22.50;95.30
14877;DHT22;69691;48.172;17.070;2023-08-01T14:11:37;22.50;95.30
14877;DHT22;69691;48.172;17.070;2023-08-01T14:14:03;22.50;95.10
14877;DHT22;69691;48.172;17.070;2023-08-01T14:16:30;22.60;95.60
14877;DHT22;69691;48.172;17.070;2023-08-01T14:18:59;22.60;95.50
14877;DHT22;69691;48.172;17.070;2023-08-01T14:21:25;22.50;95.40
14877;DHT22;69691;48.172;17.070;2023-08-01T14:23:51;22.50;95.10
14877;DHT22;69691;48.172;17.070;2023-08-01T14:26:17;22.50;95.30
14877;DHT22;69691;48.172;17.070;2023-08-01T14:28:42;22.50;95.50
14877;DHT22;69691;48.172;17.070;2023-08-01T14:31:08;22.40;95.70
14877;DHT22;69691;48.172;17.070;2023-08-01T14:33:34;22.40;95.90
14877;DHT22;69691;48.172;17.070;2023-08-01T14:36:00;22.40;95.90
14877;DHT22;69691;48.172;17.070;2023-08-01T14:38:26;22.40;96.00
14877;DHT22;69691;48.172;17.070;2023-08-01T14:40:52;22.30;95.80
14877;DHT22;69691;48.172;17.070;2023-08-01T14:43:18;22.30;96.30
14877;DHT22;69691;48.172;17.070;2023-08-01T14:45:45;22.20;96.10
14877;DHT22;69691;48.172;17.070;2023-08-01T14:48:10;22.20;96.20
14877;DHT22;69691;48.172;17.070;2023-08-01T14:50:37;22.20;96.00
14877;DHT22;69691;48.172;17.070;2023-08-01T14:53:03;22.10;95.90
14877;DHT22;69691;48.172;17.070;2023-08-01T14:55:32;22.10;96.20
14877;DHT22;69691;48.172;17.070;2023-08-01T14:57:58;22.10;96.20
14877;DHT22;69691;48.172;17.070;2023-08-01T15:00:24;22.10;96.50
14877;DHT22;69691;48.172;17.070;2023-08-01T15:02:50;22.00;96.60
14877;DHT22;69691;48.172;17.070;2023-08-01T15:05:17;22.00;96.90
14877;DHT22;69691;48.172;17.070;2023-08-01T15:07:43;22.00;97.00
14877;DHT22;69691;48.172;17.070;2023-08-01T15:10:09;22.00;97.20
14877;DHT22;69691;48.172;17.070;2023-08-01T15:12:35;22.00;97.30
14877;DHT22;69691;48.172;17.070;2023-08-01T15:15:01;21.90;97.20
14877;DHT22;69691;48.172;17.070;2023-08-01T15:17:27;21.90;97.00
14877;DHT22;69691;48.172;17.070;2023-08-01T15:19:53;21.80;97.30